samedi 22 février 2014

ALERTE SPOTTING 22/02/14

320 F-HDMF Air Corsica (cyclistes)
   XK4501/XK4500  08h30/09h25
   XK4503/4502  15h00/16h10

 744 EC-KQC Pullmantur Air
   dpt  PLM6021  12h25


320 F-HBIO Aigle Azur
   XK752/ZI  08h50/-

143 D-AWBA WDL
   AF8826/AF7432   08h30/09h15
 AF7435/AF7306  12h05/12h45
 AF7311/A58827   15h55/ 16h10

77W F-GSQT Air France
   dpt AF370V  09h05
 arv AF4007   13h30
   (vol suite match de rugby à Cardiff)

320 EC-KCU Vueling
  VY1986/VY8994  16h50 /17h30
   arv  VY8995  20h45
   (vol suite match de rugby à Cardiff)

Manque les prévisions/immats UX / BE / AZ / TP / BA / TU / certains AH
*** Heures en Local Time / prévisions soumises
 à modifications de dernières minutes ***

le TAF de la journée


METAR: LFPO 220300Z 21007KT 180V250 9999 BKN010 BKN120 04/03 Q1012
NOSIG=
TAF LONG: LFPO 212300Z 2200/2306 23007KT CAVOK BECMG 2201/2204 7000 -RA
BKN012 BKN080 TEMPO 2204/2210 4000 RA BKN008 BECMG 2210/2212 9999
BKN020 TEMPO 2213/2217 SCT030 SCT050 BECMG 2217/2219 CAVOK BECMG
2221/2223 7000 BKN008 TEMPO 2223/2306 4000 BR BKN004=

  

   Les logs des jours précédents :
 http://www.airkalo.com/ORLYAVIATION/Logdumois.html